Time;durP1;ratioP1;P1;durP2;ratioP2;P2;SDS_P1;SDS_P2;PMS_P1;PMS_P2;Temp;Humidity;BMP_temperature;BMP_pressure;BME280_temperature;BME280_humidity;BME280_pressure;Samples;Min_cycle;Max_cycle;Signal;HPM_P1;HPM_P2
2021/05/25 00:02:34;;;;;;;5.37;3.75;;;;;;;13.00;73.21;98729.16;2151286;83;21022;-80
2021/05/25 00:05:35;;;;;;;4.85;4.22;;;;;;;12.91;73.25;98714.31;2188732;81;21164;-80
2021/05/25 00:08:35;;;;;;;5.95;3.98;;;;;;;12.87;74.15;98684.19;2150880;83;21294;-80
2021/05/25 00:11:36;;;;;;;7.50;4.20;;;;;;;12.80;73.45;98664.10;2187295;81;21382;-80
2021/05/25 00:14:37;;;;;;;5.53;3.80;;;;;;;12.74;73.89;98647.95;2150431;83;20995;-80
2021/05/25 00:17:38;;;;;;;5.45;3.98;;;;;;;12.67;74.06;98641.84;2188087;81;20962;-80
2021/05/25 00:20:39;;;;;;;5.53;3.95;;;;;;;12.63;74.73;98622.20;2150493;83;20939;-81
2021/05/25 00:23:40;;;;;;;5.65;4.42;;;;;;;12.57;74.67;98588.16;2188130;81;20970;-80
2021/05/25 00:26:41;;;;;;;6.58;4.20;;;;;;;12.50;74.40;98580.75;2151091;83;20970;-80
2021/05/25 00:29:42;;;;;;;8.28;4.10;;;;;;;12.47;74.87;98582.05;2188496;81;21025;-81
2021/05/25 00:32:43;;;;;;;5.87;3.90;;;;;;;12.44;74.87;98582.05;2151345;83;21018;-80
2021/05/25 00:35:44;;;;;;;5.05;3.95;;;;;;;12.42;75.18;98585.98;2188667;81;21014;-80
2021/05/25 00:38:45;;;;;;;5.70;3.98;;;;;;;12.41;75.09;98576.81;2151402;83;20970;-80
2021/05/25 00:41:47;;;;;;;5.62;3.95;;;;;;;12.37;75.25;98589.47;2188971;81;20986;-80
2021/05/25 00:44:48;;;;;;;6.55;4.20;;;;;;;12.36;76.58;98592.95;2151287;83;21105;-79
2021/05/25 00:47:49;;;;;;;5.55;4.33;;;;;;;12.31;75.41;98596.01;2188862;81;21021;-80
2021/05/25 00:50:50;;;;;;;6.90;4.50;;;;;;;12.28;75.49;98607.78;2151491;83;20926;-81
2021/05/25 00:53:51;;;;;;;6.50;4.25;;;;;;;12.29;75.82;98613.45;2189063;81;20989;-80
2021/05/25 00:56:52;;;;;;;4.15;3.75;;;;;;;12.29;75.58;98615.63;2151735;83;20914;-80
2021/05/25 00:59:54;;;;;;;6.72;3.77;;;;;;;12.31;75.76;98615.64;2189097;81;20946;-80
2021/05/25 01:02:55;;;;;;;6.55;4.50;;;;;;;12.32;76.03;98619.56;2151749;83;20970;-81
2021/05/25 01:05:56;;;;;;;5.42;4.55;;;;;;;12.32;75.96;98616.08;2189374;81;20998;-80
2021/05/25 01:09:00;;;;;;;5.83;4.37;;;;;;;12.33;76.21;98620.44;2151773;83;21021;-80
2021/05/25 01:12:02;;;;;;;8.63;4.50;;;;;;;12.31;76.25;98620.87;2189024;81;20970;-81
2021/05/25 01:15:05;;;;;;;6.97;5.03;;;;;;;12.32;76.40;98614.77;2151699;83;20962;-80
2021/05/25 01:18:04;;;;;;;8.25;4.70;;;;;;;12.31;76.36;98606.48;2189006;81;20982;-80
2021/05/25 01:21:05;;;;;;;5.28;4.67;;;;;;;12.31;76.67;98602.55;2151512;83;20961;-81
2021/05/25 01:24:06;;;;;;;5.37;4.70;;;;;;;12.32;76.53;98594.70;2188527;81;21108;-81
2021/05/25 01:27:07;;;;;;;6.25;4.78;;;;;;;12.31;76.55;98586.84;2151366;83;20978;-81
2021/05/25 01:30:09;;;;;;;9.15;4.75;;;;;;;12.29;76.69;98570.27;2188672;81;21006;-81
2021/05/25 01:33:09;;;;;;;5.37;4.12;;;;;;;12.28;76.65;98555.44;2151365;83;21378;-82
2021/05/25 01:36:11;;;;;;;5.30;4.83;;;;;;;12.27;76.84;98555.00;2188988;81;21014;-81
2021/05/25 01:39:11;;;;;;;10.40;4.40;;;;;;;12.27;76.78;98560.23;2151141;83;20982;-81
2021/05/25 01:42:12;;;;;;;5.20;4.65;;;;;;;12.29;76.73;98565.03;2189136;81;20966;-81
2021/05/25 01:45:13;;;;;;;5.67;4.53;;;;;;;12.32;76.85;98563.73;2151919;83;21393;-81
2021/05/25 01:48:14;;;;;;;5.15;3.92;;;;;;;12.33;76.80;98545.41;2189211;81;20950;-81
2021/05/25 01:51:15;;;;;;;7.40;4.60;;;;;;;12.31;76.76;98543.23;2151697;83;21314;-82
2021/05/25 01:54:16;;;;;;;8.33;4.70;;;;;;;12.30;76.58;98537.99;2188903;81;21019;-81
2021/05/25 01:57:17;;;;;;;6.08;4.15;;;;;;;12.31;76.68;98534.07;2151996;83;21362;-81
2021/05/25 02:00:18;;;;;;;6.17;4.17;;;;;;;12.30;76.79;98520.55;2189442;81;21010;-80
2021/05/25 02:03:19;;;;;;;8.03;4.05;;;;;;;12.29;76.58;98521.86;2151279;83;21374;-81
2021/05/25 02:06:20;;;;;;;6.42;3.80;;;;;;;12.27;76.60;98522.30;2188945;81;20989;-81
2021/05/25 02:09:21;;;;;;;5.72;3.75;;;;;;;12.29;76.65;98526.66;2151421;83;20943;-81
2021/05/25 02:12:22;;;;;;;7.92;4.15;;;;;;;12.29;76.50;98520.55;2188173;81;20946;-79
2021/05/25 02:15:23;;;;;;;3.92;3.52;;;;;;;12.27;76.52;98523.59;2150500;83;20958;-83
2021/05/25 02:18:24;;;;;;;3.98;3.60;;;;;;;12.27;76.52;98514.00;2188340;81;21314;-79
2021/05/25 02:21:25;;;;;;;4.45;3.60;;;;;;;12.27;76.46;98506.59;2150327;83;20986;-80
2021/05/25 02:24:26;;;;;;;4.65;3.33;;;;;;;12.27;76.27;98507.90;2188715;81;21010;-82
2021/05/25 02:27:27;;;;;;;3.62;3.30;;;;;;;12.26;76.27;98511.39;2151324;83;21009;-82
2021/05/25 02:30:28;;;;;;;3.75;3.45;;;;;;;12.23;76.42;98508.77;2188735;81;20998;-82
2021/05/25 02:33:29;;;;;;;4.58;3.10;;;;;;;12.22;76.16;98500.48;2151281;83;21010;-80
2021/05/25 02:36:30;;;;;;;3.42;3.10;;;;;;;12.22;76.19;98503.10;2188956;81;21025;-81
2021/05/25 02:39:31;;;;;;;4.28;3.22;;;;;;;12.20;76.34;98498.30;2151276;83;20990;-81
2021/05/25 02:42:32;;;;;;;3.08;2.85;;;;;;;12.21;76.31;98503.97;2189139;81;20942;-83
2021/05/25 02:45:33;;;;;;;3.60;3.30;;;;;;;12.18;76.39;98503.97;2151340;83;21025;-81
2021/05/25 02:48:34;;;;;;;4.15;3.20;;;;;;;12.17;76.37;98511.39;2188795;81;20961;-80
2021/05/25 02:51:35;;;;;;;5.65;3.27;;;;;;;12.16;76.59;98514.87;2151493;83;21279;-81
2021/05/25 02:54:36;;;;;;;3.87;2.75;;;;;;;12.13;76.84;98527.05;2188914;81;21263;-81
2021/05/25 02:57:37;;;;;;;3.50;2.70;;;;;;;12.12;76.69;98534.47;2151036;83;20907;-80
2021/05/25 03:00:38;;;;;;;9.73;3.22;;;;;;;12.10;76.94;98543.19;2188423;81;21002;-81
2021/05/25 03:03:39;;;;;;;7.25;3.80;;;;;;;12.06;77.47;98537.08;2150989;83;20915;-82
2021/05/25 03:06:40;;;;;;;3.65;2.87;;;;;;;12.02;77.37;98523.99;2188886;81;21001;-82
2021/05/25 03:09:41;;;;;;;4.15;3.65;;;;;;;11.98;77.13;98523.55;2189017;81;20966;-81
2021/05/25 03:12:42;;;;;;;4.85;3.22;;;;;;;11.94;77.39;98529.22;2189045;81;20994;-83
2021/05/25 03:15:43;;;;;;;5.20;3.22;;;;;;;12.73;80.49;98523.98;2189223;81;20973;-80
2021/05/25 03:18:44;;;;;;;3.10;2.80;;;;;;;13.13;75.99;98520.42;2189249;81;20946;-80
2021/05/25 03:21:45;;;;;;;3.37;3.00;;;;;;;12.81;75.63;98524.41;2189261;81;21002;-80
2021/05/25 03:24:46;;;;;;;3.50;3.10;;;;;;;12.60;75.79;98522.70;2189675;81;21014;-81
2021/05/25 03:27:47;;;;;;;3.62;3.20;;;;;;;12.44;76.09;98537.55;2189799;81;21042;-80
2021/05/25 03:30:49;;;;;;;8.90;3.92;;;;;;;12.35;76.55;98546.72;2189883;81;20978;-82
2021/05/25 03:33:49;;;;;;;6.22;3.20;;;;;;;12.32;76.67;98561.98;2188878;81;21022;-82
2021/05/25 03:36:50;;;;;;;3.90;3.50;;;;;;;12.33;77.42;98564.16;2189508;81;20990;-81
2021/05/25 03:39:51;;;;;;;3.85;3.10;;;;;;;12.30;77.26;98579.44;2189638;81;20947;-81
2021/05/25 03:42:52;;;;;;;7.30;3.05;;;;;;;12.24;77.53;98579.86;2189362;81;21099;-81
2021/05/25 03:45:53;;;;;;;4.78;3.22;;;;;;;12.20;77.64;98584.66;2189391;81;20957;-81
2021/05/25 03:48:55;;;;;;;3.60;3.27;;;;;;;12.15;77.93;98583.34;2189176;81;21002;-81
2021/05/25 03:51:56;;;;;;;9.68;3.35;;;;;;;12.11;78.72;98582.87;2189079;81;21019;-83
2021/05/25 03:54:59;;;;;;;6.37;3.33;;;;;;;12.07;77.99;98587.22;2188654;81;20926;-82
2021/05/25 04:01:19;;;;;;;6.25;3.27;;;;;;;12.03;78.39;98592.02;2165045;82;21335;-82
2021/05/25 04:04:20;;;;;;;3.77;3.00;;;;;;;11.98;78.36;98583.28;2151289;83;21359;-82
2021/05/25 04:07:21;;;;;;;4.40;3.90;;;;;;;11.99;78.41;98590.26;2166412;81;21002;-80
2021/05/25 04:10:22;;;;;;;4.10;3.37;;;;;;;12.01;78.56;98583.29;2150497;82;20990;-81
2021/05/25 04:13:23;;;;;;;4.10;3.10;;;;;;;12.04;78.80;98585.03;2187725;81;21010;-81
2021/05/25 04:16:24;;;;;;;3.22;2.87;;;;;;;12.07;78.78;98581.98;2150658;83;20946;-81
2021/05/25 04:19:25;;;;;;;4.75;3.00;;;;;;;12.09;78.72;98586.78;2187911;81;20946;-81
2021/05/25 04:22:26;;;;;;;4.08;3.12;;;;;;;12.11;78.60;98581.56;2150574;83;21033;-81
2021/05/25 04:25:27;;;;;;;5.92;2.90;;;;;;;12.15;78.66;98575.49;2188438;81;20974;-82
2021/05/25 04:28:28;;;;;;;5.17;3.02;;;;;;;12.17;78.47;98571.13;2150928;83;21025;-80
2021/05/25 04:31:29;;;;;;;4.37;2.80;;;;;;;12.20;78.56;98574.19;2188558;81;20953;-81
2021/05/25 04:34:30;;;;;;;3.72;2.75;;;;;;;12.23;78.37;98576.81;2151144;83;20951;-81
2021/05/25 04:37:31;;;;;;;4.37;2.77;;;;;;;12.25;78.68;98567.22;2188478;81;20991;-81
2021/05/25 04:40:33;;;;;;;4.47;2.72;;;;;;;12.28;78.55;98576.37;2150864;83;21006;-81
2021/05/25 04:43:33;;;;;;;3.17;2.67;;;;;;;12.28;78.42;98572.02;2188283;81;20954;-82
2021/05/25 04:46:35;;;;;;;7.25;2.50;;;;;;;12.30;78.64;98572.02;2151023;83;21002;-80
2021/05/25 04:49:39;;;;;;;5.58;2.67;;;;;;;12.30;78.68;98574.63;2189018;81;21038;-79
2021/05/25 04:52:40;;;;;;;5.70;3.10;;;;;;;12.35;79.04;98576.38;2151428;83;21038;-80
2021/05/25 04:55:41;;;;;;;5.87;2.90;;;;;;;12.46;78.90;98580.75;2189156;81;20986;-80
2021/05/25 04:58:42;;;;;;;4.20;3.00;;;;;;;12.49;78.46;98561.98;2152054;83;20919;-78
2021/05/25 05:01:43;;;;;;;3.67;2.98;;;;;;;12.53;78.61;98564.16;2189037;81;20981;-79
2021/05/25 05:04:44;;;;;;;3.50;2.55;;;;;;;12.52;78.66;98569.84;2151143;83;21181;-80
2021/05/25 05:07:46;;;;;;;7.30;3.40;;;;;;;12.53;78.74;98558.49;2175964;81;21044;-79
2021/05/25 05:10:47;;;;;;;4.75;2.77;;;;;;;12.53;78.71;98567.66;2172199;82;20986;-79
2021/05/25 05:13:48;;;;;;;4.55;3.05;;;;;;;12.59;78.50;98566.34;2171251;82;20971;-79
2021/05/25 05:16:49;;;;;;;7.00;6.03;;;;;;;12.65;78.59;98565.03;2112429;84;21081;-79
2021/05/25 05:19:50;;;;;;;9.85;3.15;;;;;;;12.76;78.37;98556.72;2113245;84;20953;-80
2021/05/25 05:22:51;;;;;;;7.22;3.52;;;;;;;12.89;78.20;98560.19;2113844;84;20930;-79
2021/05/25 05:25:52;;;;;;;4.67;2.98;;;;;;;13.05;78.17;98555.82;2113846;84;20985;-79
2021/05/25 05:28:53;;;;;;;8.38;2.90;;;;;;;13.18;77.76;98566.73;2113652;84;20978;-80
2021/05/25 05:31:55;;;;;;;3.72;3.08;;;;;;;13.26;77.87;98566.27;2150074;83;21096;-79
2021/05/25 05:34:56;;;;;;;5.50;3.37;;;;;;;13.37;77.68;98571.48;2114049;84;20954;-81
2021/05/25 05:37:56;;;;;;;6.47;3.85;;;;;;;13.45;77.20;98574.94;2114029;83;21018;-80
2021/05/25 05:41:04;;;;;;;5.08;3.17;;;;;;;13.50;77.24;98568.37;2113760;84;21334;-80
2021/05/25 05:44:00;;;;;;;6.65;3.12;;;;;;;13.56;77.35;98565.72;2113167;84;21042;-82
2021/05/25 05:47:01;;;;;;;5.33;3.22;;;;;;;13.56;77.03;98573.14;2113771;84;20989;-79
2021/05/25 05:50:10;;;;;;;7.08;4.05;;;;;;;13.57;76.82;98571.39;2113223;84;21310;-81
2021/05/25 05:53:04;;;;;;;6.37;3.87;;;;;;;13.59;77.15;98574.88;2112544;84;21041;-80
2021/05/25 05:56:05;;;;;;;11.30;4.80;;;;;;;13.59;76.80;98574.44;2113920;84;20962;-81
2021/05/25 05:59:06;;;;;;;6.80;4.45;;;;;;;13.59;76.69;98572.26;2113509;84;21001;-79
2021/05/25 06:02:07;;;;;;;6.53;3.15;;;;;;;13.55;76.60;98579.70;2112548;84;20966;-81
2021/05/25 06:05:08;;;;;;;3.87;3.12;;;;;;;13.52;76.84;98569.23;2113120;84;21088;-81
2021/05/25 06:08:09;;;;;;;3.67;2.75;;;;;;;13.52;76.66;98571.41;2142895;82;21017;-79
2021/05/25 06:11:10;;;;;;;5.03;2.80;;;;;;;13.61;76.78;98561.32;2177698;82;20950;-80
2021/05/25 06:14:11;;;;;;;5.30;2.92;;;;;;;13.74;76.50;98564.31;2148893;83;21303;-81
2021/05/25 06:17:12;;;;;;;5.28;2.50;;;;;;;13.93;76.20;98563.36;2178264;82;20954;-81
2021/05/25 06:20:13;;;;;;;8.70;5.37;;;;;;;14.08;75.76;98566.77;2148888;83;21362;-82
2021/05/25 06:23:14;;;;;;;9.70;3.20;;;;;;;14.16;75.14;98567.15;2177985;82;20990;-82
2021/05/25 06:26:15;;;;;;;5.40;3.47;;;;;;;14.30;75.03;98577.55;2148756;83;21346;-84
2021/05/25 06:29:16;;;;;;;5.17;3.80;;;;;;;14.38;74.67;98577.05;2177875;82;21042;-81
2021/05/25 06:32:17;;;;;;;7.60;3.87;;;;;;;14.37;74.53;98576.63;2149090;83;21025;-82
2021/05/25 06:35:18;;;;;;;6.58;4.08;;;;;;;14.43;74.02;98575.73;2177860;82;20934;-80
2021/05/25 06:38:20;;;;;;;5.40;3.83;;;;;;;14.52;74.01;98574.34;2147947;82;21094;-80
2021/05/25 06:41:21;;;;;;;5.58;3.70;;;;;;;14.64;73.56;98565.92;2177548;82;21711;-81
2021/05/25 06:44:22;;;;;;;7.28;2.95;;;;;;;14.79;73.47;98564.08;2148256;83;20970;-81
2021/05/25 06:47:23;;;;;;;8.00;3.25;;;;;;;14.98;73.12;98549.86;2177542;82;21461;-81
2021/05/25 06:50:24;;;;;;;5.75;3.10;;;;;;;15.17;73.05;98543.96;2148868;83;20982;-81
2021/05/25 06:53:24;;;;;;;4.80;2.50;;;;;;;15.39;72.45;98552.47;2178089;82;21006;-83
2021/05/25 06:56:25;;;;;;;5.15;2.60;;;;;;;15.58;71.75;98546.13;2149097;83;20962;-81
2021/05/25 06:59:26;;;;;;;3.08;2.42;;;;;;;15.85;71.28;98524.73;2178447;82;20958;-82
2021/05/25 07:02:27;;;;;;;6.30;2.50;;;;;;;16.13;70.48;98539.66;2148652;82;21074;-83
2021/05/25 07:05:28;;;;;;;6.47;3.20;;;;;;;16.14;70.27;98550.63;2177793;82;21085;-82
2021/05/25 07:08:29;;;;;;;6.25;2.22;;;;;;;16.30;70.05;98538.53;2150425;82;21038;-84
2021/05/25 07:11:30;;;;;;;4.15;2.95;;;;;;;16.33;69.68;98545.06;2188640;81;21014;-81
2021/05/25 07:14:31;;;;;;;4.75;2.10;;;;;;;16.35;69.70;98537.56;2150828;83;20946;-79
2021/05/25 07:17:32;;;;;;;3.02;2.65;;;;;;;16.60;71.57;98538.06;2188261;81;21037;-82
2021/05/25 07:20:33;;;;;;;7.67;3.25;;;;;;;17.02;68.85;98531.63;2151464;83;20958;-81
2021/05/25 07:23:34;;;;;;;5.72;3.22;;;;;;;17.10;67.97;98539.80;2188217;81;20959;-81
2021/05/25 07:26:38;;;;;;;6.17;2.95;;;;;;;17.03;67.52;98543.91;2151554;83;20978;-82
2021/05/25 07:29:39;;;;;;;6.10;3.67;;;;;;;17.07;66.96;98539.87;2188517;81;20951;-82
2021/05/25 07:32:40;;;;;;;7.53;3.47;;;;;;;16.91;67.48;98542.38;2150491;83;20932;-81
2021/05/25 07:35:42;;;;;;;8.73;3.35;;;;;;;16.92;67.86;98541.92;2187726;81;21042;-81
2021/05/25 07:38:45;;;;;;;5.62;3.17;;;;;;;17.09;67.26;98539.84;2150158;83;21041;-81
2021/05/25 07:41:46;;;;;;;4.37;3.02;;;;;;;17.12;66.39;98545.92;2187670;81;21046;-81
2021/05/25 07:44:47;;;;;;;3.00;2.47;;;;;;;17.06;66.58;98557.03;2150293;83;20954;-83
2021/05/25 07:47:48;;;;;;;7.85;3.42;;;;;;;16.82;66.26;98546.49;2188027;81;21080;-82
2021/05/25 07:50:48;;;;;;;10.60;3.35;;;;;;;16.77;67.06;98553.61;2150413;83;21005;-81
2021/05/25 07:53:50;;;;;;;7.53;3.17;;;;;;;16.71;66.54;98557.67;2186983;81;21014;-81
2021/05/25 07:56:51;;;;;;;12.82;3.08;;;;;;;16.66;66.62;98559.06;2150110;83;21074;-81
2021/05/25 07:59:52;;;;;;;4.87;2.65;;;;;;;16.61;66.69;98561.33;2188283;81;21018;-80
2021/05/25 08:02:54;;;;;;;4.60;2.65;;;;;;;16.58;67.09;98554.79;2150508;83;21026;-80
2021/05/25 08:05:58;;;;;;;7.17;3.10;;;;;;;16.56;66.94;98553.05;2188276;81;21125;-80
2021/05/25 08:08:59;;;;;;;6.47;2.75;;;;;;;16.73;67.17;98547.97;2140595;83;21520;-79
2021/05/25 08:12:00;;;;;;;4.87;2.75;;;;;;;16.91;66.40;98558.19;2171228;82;21010;-81
2021/05/25 08:15:02;;;;;;;10.48;2.65;;;;;;;17.22;66.44;98549.25;2139511;83;21367;-81
2021/05/25 08:18:18;;;;;;;6.25;2.95;;;;;;;17.65;65.30;98552.37;2171043;82;21026;-80
2021/05/25 08:21:12;;;;;;;6.62;2.70;;;;;;;17.95;64.71;98557.47;2138779;83;20982;-80
2021/05/25 08:24:13;;;;;;;5.87;2.50;;;;;;;18.32;63.93;98558.84;2170890;82;20951;-81
2021/05/25 08:27:14;;;;;;;5.17;3.10;;;;;;;18.62;62.74;98564.73;2139744;83;20974;-81
2021/05/25 08:30:15;;;;;;;4.92;2.72;;;;;;;18.71;62.81;98564.50;2170996;82;21042;-81
2021/05/25 08:33:16;;;;;;;4.40;2.98;;;;;;;18.75;63.10;98570.13;2139414;83;20927;-80
2021/05/25 08:36:18;;;;;;;7.35;2.90;;;;;;;18.52;62.39;98576.86;2170691;82;21022;-80
2021/05/25 08:39:19;;;;;;;5.85;3.15;;;;;;;18.31;62.98;98585.72;2139709;82;21129;-81
2021/05/25 08:42:20;;;;;;;3.70;3.20;;;;;;;18.24;62.82;98587.22;2171312;82;21038;-81
2021/05/25 08:45:22;;;;;;;4.62;3.00;;;;;;;18.01;62.27;98592.98;2139810;83;20975;-81
2021/05/25 08:48:23;;;;;;;5.95;3.45;;;;;;;18.03;62.17;98596.45;2171413;82;21014;-79
2021/05/25 08:51:23;;;;;;;6.17;3.65;;;;;;;18.08;62.12;98602.05;2139324;83;21271;-81
2021/05/25 08:54:24;;;;;;;5.53;3.75;;;;;;;18.28;62.03;98599.00;2171572;82;20939;-82
2021/05/25 08:57:25;;;;;;;4.22;3.83;;;;;;;18.49;61.37;98599.40;2138925;83;20958;-82
2021/05/25 09:00:26;;;;;;;5.70;3.30;;;;;;;18.65;60.62;98608.73;2171498;82;21330;-81
2021/05/25 09:03:29;;;;;;;4.75;3.58;;;;;;;18.45;60.11;98606.08;2139092;83;21338;-81
2021/05/25 09:06:30;;;;;;;8.80;4.20;;;;;;;18.19;60.78;98609.73;2170909;82;21370;-81
2021/05/25 09:09:30;;;;;;;4.83;3.70;;;;;;;18.29;61.06;98611.30;2150713;83;21052;-82
2021/05/25 09:12:31;;;;;;;6.42;4.30;;;;;;;18.55;60.23;98608.05;2188435;81;21022;-84
2021/05/25 09:15:33;;;;;;;4.28;3.62;;;;;;;18.91;60.18;98609.41;2150884;83;21021;-82
2021/05/25 09:18:34;;;;;;;7.90;3.98;;;;;;;19.34;58.27;98607.86;2188059;81;20978;-83
2021/05/25 09:21:36;;;;;;;8.33;3.83;;;;;;;19.46;57.20;98607.97;2150573;83;21018;-83
2021/05/25 09:24:37;;;;;;;5.22;3.62;;;;;;;19.57;57.04;98608.13;2187914;81;20970;-82
2021/05/25 09:30:42;;;;;;;7.58;3.30;;;;;;;19.97;56.29;98606.55;2160000;81;21021;-82
2021/05/25 09:33:43;;;;;;;5.28;3.60;;;;;;;20.06;55.88;98614.67;2151219;83;21014;-83
2021/05/25 09:36:44;;;;;;;12.65;4.20;;;;;;;20.04;56.38;98610.75;2188398;81;21302;-83
2021/05/25 09:39:45;;;;;;;8.48;3.40;;;;;;;20.11;54.99;98614.08;2150499;83;21109;-82
2021/05/25 09:42:46;;;;;;;5.53;2.80;;;;;;;20.20;54.04;98611.61;2187961;81;20999;-84
2021/05/25 09:45:47;;;;;;;8.15;3.72;;;;;;;20.10;53.25;98608.37;2149740;83;21441;-82
2021/05/25 09:48:48;;;;;;;7.37;3.98;;;;;;;20.05;52.78;98607.64;2187626;81;20982;-83
2021/05/25 09:51:49;;;;;;;9.78;3.27;;;;;;;20.12;54.24;98606.54;2150878;83;21449;-85
2021/05/25 09:54:49;;;;;;;3.60;3.30;;;;;;;20.44;54.05;98605.58;2187391;81;20935;-84
2021/05/25 09:57:50;;;;;;;3.83;2.85;;;;;;;20.69;52.64;98595.05;2150634;83;21033;-82
2021/05/25 10:00:52;;;;;;;7.12;3.40;;;;;;;20.94;52.89;98592.02;2188188;81;20994;-82
2021/05/25 10:03:55;;;;;;;6.70;3.50;;;;;;;20.91;50.48;98592.12;2151121;83;21053;-85
2021/05/25 10:06:55;;;;;;;5.15;3.17;;;;;;;20.85;51.79;98592.32;2187876;81;21029;-83
2021/05/25 10:09:56;;;;;;;12.28;3.40;;;;;;;21.07;52.64;98590.27;2150210;82;21017;-83
2021/05/25 10:12:57;;;;;;;4.72;3.10;;;;;;;21.44;52.43;98587.22;2187984;81;21337;-83
2021/05/25 10:15:58;;;;;;;8.25;3.35;;;;;;;21.66;50.31;98580.20;2150503;83;20949;-83
2021/05/25 10:22:11;;;;;;;5.00;2.50;;;;;;;21.93;49.54;98571.22;2134010;83;21077;-84
2021/05/25 10:25:13;;;;;;;6.40;3.25;;;;;;;22.07;49.08;98565.41;2187750;81;21398;-84
2021/05/25 10:28:13;;;;;;;3.25;2.95;;;;;;;22.23;48.29;98569.66;2150875;83;21033;-84
2021/05/25 10:31:14;;;;;;;6.37;3.12;;;;;;;22.46;49.11;98565.61;2188457;81;21290;-82
2021/05/25 10:34:16;;;;;;;4.12;3.02;;;;;;;22.78;48.10;98573.63;2150785;83;21005;-83
2021/05/25 10:37:17;;;;;;;7.12;2.92;;;;;;;23.09;47.93;98569.23;2188394;81;21592;-82
2021/05/25 10:40:20;;;;;;;3.58;2.83;;;;;;;23.16;45.43;98577.82;2150586;83;21061;-81
2021/05/25 10:43:20;;;;;;;6.87;2.67;;;;;;;22.91;46.48;98565.16;2187599;81;21319;-81
2021/05/25 10:46:22;;;;;;;2.72;2.50;;;;;;;22.75;46.76;98573.76;2150562;83;21030;-83
2021/05/25 10:49:27;;;;;;;3.02;2.50;;;;;;;22.57;46.27;98570.53;2187917;81;21021;-83
2021/05/25 10:52:28;;;;;;;7.65;2.60;;;;;;;22.60;46.67;98567.74;2150661;83;20982;-82
2021/05/25 10:55:29;;;;;;;11.33;2.83;;;;;;;22.81;44.41;98567.34;2187616;81;21042;-81
2021/05/25 10:58:31;;;;;;;7.90;2.98;;;;;;;22.56;44.88;98561.69;2149904;83;20967;-83
2021/05/25 11:01:32;;;;;;;5.20;2.30;;;;;;;22.24;44.68;98566.07;2187341;81;20981;-85
2021/05/25 11:04:33;;;;;;;4.10;1.80;;;;;;;22.25;45.08;98563.35;2150367;83;21093;-82
2021/05/25 11:07:34;;;;;;;3.40;2.22;;;;;;;21.76;44.81;98563.02;2185146;81;21010;-82
2021/05/25 11:10:36;;;;;;;2.40;2.20;;;;;;;21.48;45.51;98567.59;2171186;82;21089;-82
2021/05/25 11:13:38;;;;;;;3.30;2.60;;;;;;;20.95;46.57;98579.16;2170851;82;20955;-83
2021/05/25 11:16:39;;;;;;;3.80;2.47;;;;;;;20.13;48.56;98584.88;2170616;82;20947;-81
2021/05/25 11:19:57;;;;;;;;;;;;;;;19.46;50.82;98595.61;2149544;82;20939;-82
2021/05/25 11:22:49;;;;;;;3.77;3.35;;;;;;;18.85;52.31;98596.34;2169044;82;20138;-81
2021/05/25 11:25:50;;;;;;;4.30;2.47;;;;;;;18.22;54.15;98605.73;2170876;82;21246;-82
2021/05/25 11:28:51;;;;;;;3.77;2.47;;;;;;;17.71;54.96;98609.89;2171755;82;20943;-82
2021/05/25 11:31:52;;;;;;;9.18;2.87;;;;;;;17.31;56.19;98615.47;2170841;82;20951;-81
2021/05/25 11:34:53;;;;;;;19.30;7.37;;;;;;;16.97;56.99;98625.31;2171146;82;20957;-81
2021/05/25 11:37:54;;;;;;;10.82;4.83;;;;;;;16.66;58.60;98631.98;2171260;82;21063;-82
2021/05/25 11:40:55;;;;;;;5.72;4.10;;;;;;;16.43;59.87;98639.73;2171392;82;21102;-81
2021/05/25 11:43:56;;;;;;;3.83;2.45;;;;;;;16.20;59.18;98653.23;2113161;84;21033;-82
2021/05/25 11:46:58;;;;;;;5.62;2.60;;;;;;;15.79;60.52;98677.90;2112832;84;20982;-80
2021/05/25 11:49:59;;;;;;;5.33;2.75;;;;;;;15.41;61.81;98678.25;2112310;84;21097;-80
2021/05/25 11:53:01;;;;;;;5.33;2.98;;;;;;;15.08;64.68;98690.83;2113104;84;20926;-80
2021/05/25 11:56:02;;;;;;;17.65;4.17;;;;;;;14.69;65.36;98684.54;2112473;84;21054;-81
2021/05/25 11:59:03;;;;;;;7.70;2.22;;;;;;;14.43;66.53;98697.84;2149102;83;20965;-80
2021/05/25 12:02:04;;;;;;;5.05;2.50;;;;;;;14.14;66.33;98695.34;2112827;84;21013;-81
2021/05/25 12:05:06;;;;;;;4.03;2.98;;;;;;;13.84;66.06;98710.74;2112965;84;21098;-81
2021/05/25 12:08:09;;;;;;;6.33;2.47;;;;;;;13.59;67.71;98707.32;2122294;82;21054;-82
2021/05/25 12:11:10;;;;;;;4.55;2.30;;;;;;;13.39;67.62;98716.53;2187972;81;21097;-81
2021/05/25 12:14:12;;;;;;;5.78;2.92;;;;;;;13.24;68.10;98721.36;2150613;83;21362;-80
2021/05/25 12:17:12;;;;;;;11.25;2.83;;;;;;;13.12;67.97;98731.81;2187680;81;20930;-79
2021/05/25 12:20:17;;;;;;;9.23;3.92;;;;;;;13.03;69.30;98743.61;2150674;83;21013;-81
2021/05/25 12:23:17;;;;;;;6.22;3.52;;;;;;;12.93;68.52;98737.89;2187708;81;21069;-81
2021/05/25 12:26:23;;;;;;;6.55;3.67;;;;;;;12.86;68.87;98746.62;2149791;83;21417;-81
2021/05/25 12:29:23;;;;;;;13.03;3.45;;;;;;;12.86;68.57;98747.92;2187663;81;21026;-80
2021/05/25 12:32:24;;;;;;;9.60;4.30;;;;;;;12.82;67.93;98748.80;2150003;83;21041;-82
2021/05/25 12:35:25;;;;;;;10.53;3.42;;;;;;;12.82;67.77;98755.34;2187790;81;20982;-82
2021/05/25 12:38:32;;;;;;;4.90;3.40;;;;;;;12.78;67.62;98755.77;2150265;83;21453;-83
2021/05/25 12:41:33;;;;;;;3.77;2.72;;;;;;;12.80;67.95;98763.20;2187535;81;21021;-80
2021/05/25 12:44:34;;;;;;;5.75;2.75;;;;;;;12.80;67.65;98774.11;2149510;83;20966;-81
2021/05/25 12:47:35;;;;;;;5.25;3.20;;;;;;;12.68;67.29;98777.58;2187625;81;20993;-81
2021/05/25 12:50:38;;;;;;;7.55;3.10;;;;;;;12.60;67.94;98776.25;2150594;83;20954;-80
2021/05/25 12:53:38;;;;;;;5.33;3.60;;;;;;;12.59;68.12;98786.72;2187967;81;20942;-81
2021/05/25 12:56:40;;;;;;;6.42;4.25;;;;;;;12.59;68.58;98783.67;2150641;83;21022;-81
2021/05/25 12:59:40;;;;;;;4.25;2.95;;;;;;;12.61;67.95;98779.31;2187745;81;21627;-80
2021/05/25 13:02:42;;;;;;;5.97;2.40;;;;;;;12.67;67.41;98782.37;2150435;83;21401;-80
2021/05/25 13:05:44;;;;;;;5.30;2.50;;;;;;;12.71;66.39;98782.39;2187924;81;20974;-81
2021/05/25 13:08:48;;;;;;;2.50;2.30;;;;;;;12.84;66.76;98786.34;2150403;83;21014;-82
2021/05/25 13:11:48;;;;;;;3.55;1.90;;;;;;;12.95;66.06;98785.92;2187877;81;21073;-84
2021/05/25 13:14:49;;;;;;;3.60;1.90;;;;;;;12.88;65.41;98798.58;2150933;83;21334;-80
2021/05/25 13:17:55;;;;;;;4.47;2.20;;;;;;;12.75;65.16;98793.75;2187189;81;20973;-81
2021/05/25 13:20:55;;;;;;;4.10;2.20;;;;;;;12.69;64.71;98801.59;2150004;82;21022;-81
2021/05/25 13:23:56;;;;;;;6.65;1.75;;;;;;;12.64;65.07;98788.48;2188643;81;21349;-78
2021/05/25 13:26:57;;;;;;;3.50;2.22;;;;;;;12.66;65.39;98778.89;2149923;83;21022;-80
2021/05/25 13:29:58;;;;;;;3.42;1.80;;;;;;;12.71;64.47;98781.08;2187624;81;20945;-80
2021/05/25 13:32:59;;;;;;;8.23;1.40;;;;;;;12.80;63.95;98772.80;2149776;83;21046;-80
2021/05/25 13:36:00;;;;;;;3.92;2.08;;;;;;;12.83;63.40;98791.14;2187340;81;20990;-80
2021/05/25 13:39:02;;;;;;;4.70;1.40;;;;;;;12.83;63.18;98787.22;2150393;83;21005;-83
2021/05/25 13:42:03;;;;;;;2.08;1.90;;;;;;;12.79;63.30;98786.34;2187602;81;21385;-81
2021/05/25 13:45:04;;;;;;;3.75;2.50;;;;;;;12.81;63.05;98800.31;2150016;83;21030;-79
2021/05/25 13:48:05;;;;;;;7.40;4.30;;;;;;;12.82;63.10;98791.58;2187461;81;20932;-80
2021/05/25 13:51:06;;;;;;;5.00;3.17;;;;;;;12.92;63.29;98802.95;2150162;83;21013;-80
2021/05/25 13:54:07;;;;;;;22.25;10.68;;;;;;;12.95;62.78;98799.03;2187786;81;21005;-79
2021/05/25 13:57:16;;;;;;;10.72;7.15;;;;;;;12.92;62.53;98796.40;2150851;83;20930;-80
2021/05/25 14:00:17;;;;;;;39.88;20.90;;;;;;;12.93;63.25;98802.08;2149295;82;20989;-80
2021/05/25 14:03:14;;;;;;;13.20;7.55;;;;;;;12.94;63.27;98794.66;2186719;81;21017;-80
2021/05/25 14:06:14;;;;;;;13.00;7.30;;;;;;;13.08;62.96;98792.96;2150627;83;21326;-80
2021/05/25 14:09:16;;;;;;;12.95;6.83;;;;;;;14.54;63.40;98786.20;2180380;81;21473;-80
2021/05/25 14:12:16;;;;;;;9.00;4.45;;;;;;;14.31;60.15;98784.09;2170999;82;21030;-81
2021/05/25 14:15:18;;;;;;;11.73;5.40;;;;;;;13.96;60.54;98785.52;2113662;84;21018;-80
2021/05/25 14:18:19;;;;;;;8.65;5.83;;;;;;;13.86;60.69;98780.70;2113256;84;21034;-80
2021/05/25 14:21:20;;;;;;;3.75;2.67;;;;;;;13.82;60.85;98778.09;2113098;84;20950;-82
2021/05/25 14:24:21;;;;;;;4.50;2.90;;;;;;;13.83;60.57;98782.02;2113073;84;21321;-81